Time;durP1;ratioP1;P1;durP2;ratioP2;P2;SDS_P1;SDS_P2;PMS_P1;PMS_P2;Temp;Humidity;BMP_temperature;BMP_pressure;BME280_temperature;BME280_humidity;BME280_pressure;Samples;Min_cycle;Max_cycle;Signal;HPM_P1;HPM_P2
2022/11/06 00:00:18;;;;;;;11.70;3.50;;;10.80;99.90;;;;;;5072381;28;20472;-71
2022/11/06 00:02:45;;;;;;;12.90;3.40;;;11.00;99.90;;;;;;5072337;28;20029;-71
2022/11/06 00:07:56;;;;;;;8.10;3.55;;;10.90;99.90;;;;;;5072484;28;20024;-70
2022/11/06 00:10:22;;;;;;;14.18;4.05;;;10.90;99.90;;;;;;5072609;28;20040;-71
2022/11/06 00:12:48;;;;;;;12.50;3.35;;;10.80;99.90;;;;;;5071089;28;20033;-71
2022/11/06 00:15:14;;;;;;;12.10;4.00;;;10.90;99.90;;;;;;5072215;28;20025;-70
2022/11/06 00:17:40;;;;;;;16.42;3.33;;;10.90;99.90;;;;;;5072164;28;20033;-72
2022/11/06 00:20:07;;;;;;;16.27;3.75;;;10.90;99.90;;;;;;5072572;28;20020;-71
2022/11/06 00:22:33;;;;;;;19.73;3.35;;;10.90;99.90;;;;;;5072494;28;20475;-71
2022/11/06 00:25:00;;;;;;;17.08;3.35;;;10.90;99.90;;;;;;5072393;28;20052;-71
2022/11/06 00:27:26;;;;;;;12.50;4.10;;;10.90;99.90;;;;;;5072305;28;20025;-71
2022/11/06 00:29:52;;;;;;;12.15;3.17;;;10.90;99.90;;;;;;5070800;28;20020;-70
2022/11/06 00:32:17;;;;;;;19.15;4.72;;;10.90;99.90;;;;;;5072342;28;20380;-71
2022/11/06 00:34:43;;;;;;;14.73;3.95;;;10.90;99.90;;;;;;5071078;28;20065;-69
2022/11/06 00:37:09;;;;;;;13.40;3.72;;;11.00;99.90;;;;;;5072292;28;20443;-69
2022/11/06 00:39:35;;;;;;;14.57;3.40;;;10.90;99.90;;;;;;5072020;28;20134;-71
2022/11/06 00:42:00;;;;;;;20.55;3.95;;;10.90;99.90;;;;;;5072710;28;20086;-72
2022/11/06 00:44:26;;;;;;;15.23;3.53;;;10.90;99.90;;;;;;5071876;28;20033;-68
2022/11/06 00:46:52;;;;;;;17.33;3.03;;;10.90;99.90;;;;;;5072092;28;20040;-68
2022/11/06 00:49:17;;;;;;;14.93;3.63;;;11.00;99.90;;;;;;5072267;28;20051;-68
2022/11/06 00:51:44;;;;;;;11.25;3.55;;;11.00;99.90;;;;;;5072050;28;20366;-68
2022/11/06 00:54:11;;;;;;;12.90;3.35;;;11.10;99.90;;;;;;5072412;28;20085;-68
2022/11/06 00:56:37;;;;;;;11.38;3.55;;;11.00;99.90;;;;;;5070730;28;20029;-69
2022/11/06 00:59:06;;;;;;;17.83;4.25;;;11.00;99.90;;;;;;5072791;28;20035;-69
2022/11/06 01:01:40;;;;;;;15.10;4.32;;;10.90;99.90;;;;;;5075818;28;20149;-68
2022/11/06 01:04:20;;;;;;;11.07;3.72;;;10.90;99.90;;;;;;5075275;28;20047;-68
2022/11/06 01:06:49;;;;;;;13.15;3.33;;;10.90;99.90;;;;;;5074613;28;20024;-68
2022/11/06 01:09:17;;;;;;;11.02;3.15;;;11.00;99.90;;;;;;5075170;28;20040;-69
2022/11/06 01:11:46;;;;;;;13.75;3.30;;;11.00;99.90;;;;;;5074243;28;20043;-69
2022/11/06 01:14:13;;;;;;;12.20;3.05;;;11.10;99.90;;;;;;5075540;28;20035;-69
2022/11/06 01:16:39;;;;;;;13.07;3.53;;;11.10;99.90;;;;;;5075432;28;20024;-69
2022/11/06 01:19:06;;;;;;;6.38;2.55;;;11.10;99.90;;;;;;5075522;28;20028;-69
2022/11/06 01:21:36;;;;;;;11.27;3.05;;;11.10;99.90;;;;;;5075299;28;20036;-69
2022/11/06 01:24:09;;;;;;;13.90;3.47;;;11.10;99.90;;;;;;5070066;28;20123;-69
2022/11/06 01:26:35;;;;;;;13.63;3.60;;;11.10;99.90;;;;;;5072969;28;20052;-68
2022/11/06 01:29:02;;;;;;;7.68;2.30;;;11.00;99.90;;;;;;5075534;28;20043;-68
2022/11/06 01:31:29;;;;;;;12.95;3.60;;;11.00;99.90;;;;;;5075172;28;20031;-68
2022/11/06 01:33:57;;;;;;;10.27;3.00;;;11.10;99.90;;;;;;5073980;28;20083;-68
2022/11/06 01:36:23;;;;;;;12.65;2.83;;;11.20;99.90;;;;;;5074958;28;20028;-69
2022/11/06 01:38:51;;;;;;;12.38;3.90;;;11.30;99.90;;;;;;5073882;28;20032;-68
2022/11/06 01:41:20;;;;;;;13.18;3.22;;;11.20;99.90;;;;;;5074700;28;20376;-68
2022/11/06 01:43:50;;;;;;;17.90;3.42;;;11.20;99.90;;;;;;5074839;28;20068;-69
2022/11/06 01:46:18;;;;;;;13.80;2.80;;;11.20;99.90;;;;;;5074946;28;20036;-68
2022/11/06 01:48:50;;;;;;;15.75;4.07;;;11.20;99.90;;;;;;5073472;28;20419;-68
2022/11/06 01:51:16;;;;;;;8.15;3.08;;;11.20;99.90;;;;;;5073891;28;20028;-69
2022/11/06 01:53:42;;;;;;;12.95;3.40;;;11.20;99.90;;;;;;5074705;28;20020;-68
2022/11/06 01:56:11;;;;;;;13.45;3.35;;;11.20;99.90;;;;;;5073179;28;20494;-69
2022/11/06 01:58:40;;;;;;;11.23;3.03;;;11.30;99.90;;;;;;5074793;28;20032;-68
2022/11/06 02:01:09;;;;;;;16.17;4.00;;;11.20;99.90;;;;;;5074796;28;20075;-68
2022/11/06 02:03:38;;;;;;;12.48;2.80;;;11.20;99.90;;;;;;5074521;28;20087;-68
2022/11/06 02:06:05;;;;;;;11.13;3.10;;;11.20;99.90;;;;;;5074394;28;20067;-69
2022/11/06 02:08:31;;;;;;;13.15;3.10;;;11.30;99.90;;;;;;5074655;28;20036;-68
2022/11/06 02:10:57;;;;;;;9.63;3.45;;;11.20;99.90;;;;;;5073367;28;20465;-68
2022/11/06 02:14:12;;;;;;;16.30;3.50;;;11.20;99.90;;;;;;5074557;28;20032;-69
2022/11/06 02:16:58;;;;;;;11.32;3.15;;;11.20;99.90;;;;;;5073240;28;20083;-68
2022/11/06 02:19:42;;;;;;;13.07;3.78;;;11.10;99.90;;;;;;5074172;28;20042;-69
2022/11/06 02:22:13;;;;;;;14.52;3.35;;;11.10;99.90;;;;;;5074245;28;20035;-68
2022/11/06 02:24:48;;;;;;;12.88;3.10;;;11.20;99.90;;;;;;5073741;28;20037;-69
2022/11/06 02:27:14;;;;;;;10.82;2.78;;;11.20;99.90;;;;;;5074267;28;20480;-68
2022/11/06 02:29:54;;;;;;;11.32;2.80;;;11.20;99.90;;;;;;5073986;28;20165;-69
2022/11/06 02:32:31;;;;;;;12.93;3.00;;;11.20;99.90;;;;;;5074291;28;20090;-70
2022/11/06 02:35:02;;;;;;;11.45;3.35;;;11.20;99.90;;;;;;5073769;28;20028;-70
2022/11/06 02:37:33;;;;;;;9.73;3.15;;;11.10;99.90;;;;;;5074156;28;20389;-70
2022/11/06 02:40:05;;;;;;;7.95;2.80;;;11.20;99.90;;;;;;5056905;28;20028;-71
2022/11/06 02:42:33;;;;;;;13.55;3.17;;;11.10;99.90;;;;;;5052803;28;20078;-69
2022/11/06 02:45:00;;;;;;;10.75;3.25;;;11.20;99.90;;;;;;5053388;28;20039;-71
2022/11/06 02:47:30;;;;;;;13.75;4.05;;;11.30;99.90;;;;;;5054004;28;20470;-72
2022/11/06 02:50:10;;;;;;;12.25;3.63;;;11.30;99.90;;;;;;5053957;28;20076;-71
2022/11/06 02:52:53;;;;;;;15.60;3.00;;;11.30;99.90;;;;;;5053763;28;20029;-71
2022/11/06 02:55:27;;;;;;;12.02;3.70;;;11.20;99.90;;;;;;5053536;28;20040;-71
2022/11/06 02:57:57;;;;;;;8.32;3.63;;;11.20;99.90;;;;;;5052040;28;20031;-71
2022/11/06 03:00:24;;;;;;;13.25;2.83;;;11.20;99.90;;;;;;5053610;28;20029;-70
2022/11/06 03:02:55;;;;;;;11.15;3.15;;;11.10;99.90;;;;;;5052070;28;20021;-71
2022/11/06 03:05:24;;;;;;;15.93;3.15;;;11.00;99.90;;;;;;5053527;28;20056;-71
2022/11/06 03:07:55;;;;;;;9.13;3.10;;;11.00;99.90;;;;;;5052735;28;20033;-69
2022/11/06 03:10:29;;;;;;;13.95;3.67;;;11.00;99.90;;;;;;5053651;28;20048;-71
2022/11/06 03:13:06;;;;;;;10.57;2.97;;;11.00;99.90;;;;;;5035559;28;20033;-71
2022/11/06 03:15:48;;;;;;;13.43;3.15;;;11.00;99.90;;;;;;5040278;28;20079;-73
2022/11/06 03:18:28;;;;;;;12.80;3.00;;;11.00;99.90;;;;;;5053361;28;20112;-73
2022/11/06 03:20:59;;;;;;;16.98;3.05;;;11.10;99.90;;;;;;5053102;28;20108;-73
2022/11/06 03:23:33;;;;;;;21.50;3.42;;;11.00;99.90;;;;;;5052894;28;20037;-73
2022/11/06 03:26:24;;;;;;;13.00;3.08;;;11.00;99.90;;;;;;5051929;28;20117;-71
2022/11/06 03:29:25;;;;;;;16.45;3.25;;;11.10;99.90;;;;;;5053076;28;20032;-72
2022/11/06 03:31:56;;;;;;;8.07;2.90;;;10.90;99.90;;;;;;5052879;28;20032;-68
2022/11/06 03:34:30;;;;;;;16.88;3.55;;;10.90;99.90;;;;;;5052994;28;20029;-69
2022/11/06 03:37:13;;;;;;;14.45;3.35;;;10.90;99.90;;;;;;5052388;28;20576;-69
2022/11/06 03:39:45;;;;;;;17.88;3.40;;;10.90;99.90;;;;;;5053017;28;20087;-69
2022/11/06 03:42:16;;;;;;;;;;;11.00;99.90;;;;;;5053191;28;20501;-72
2022/11/06 03:44:50;;;;;;;13.65;3.05;;;10.90;99.90;;;;;;5052910;28;19943;-71
2022/11/06 03:47:25;;;;;;;14.07;3.42;;;11.00;99.90;;;;;;5052526;28;20374;-70
2022/11/06 03:49:58;;;;;;;11.23;3.40;;;11.00;99.90;;;;;;5052933;28;20167;-71
2022/11/06 03:52:34;;;;;;;12.38;3.08;;;11.00;99.90;;;;;;5051035;28;20061;-70
2022/11/06 03:55:13;;;;;;;9.65;3.00;;;11.00;99.90;;;;;;5052903;28;20473;-72
2022/11/06 03:57:43;;;;;;;9.15;2.70;;;11.00;99.90;;;;;;5052323;28;20053;-71
2022/11/06 04:00:10;;;;;;;14.40;3.08;;;11.10;99.90;;;;;;5052745;28;20033;-72
2022/11/06 04:02:45;;;;;;;14.57;3.23;;;11.00;99.90;;;;;;5052330;28;20044;-71
2022/11/06 04:05:21;;;;;;;13.63;2.60;;;10.90;99.90;;;;;;5052754;28;20291;-73
2022/11/06 04:16:10;;;;;;;10.90;3.33;;;11.00;99.90;;;;;;5052019;28;20079;-71
2022/11/06 04:18:35;;;;;;;10.73;3.20;;;10.90;99.90;;;;;;5052386;28;20449;-72
2022/11/06 04:21:35;;;;;;;10.40;3.28;;;11.00;99.90;;;;;;5051965;28;20108;-72
2022/11/06 04:27:25;;;;;;;12.18;2.88;;;11.00;99.90;;;;;;5039415;28;20036;-71
2022/11/06 04:30:05;;;;;;;11.75;3.58;;;10.90;99.90;;;;;;5052187;28;20033;-71
2022/11/06 04:32:53;;;;;;;11.43;3.42;;;11.00;99.90;;;;;;5052313;28;20033;-71
2022/11/06 04:35:50;;;;;;;13.20;3.88;;;11.00;99.90;;;;;;5054772;28;20533;-72
2022/11/06 04:38:24;;;;;;;17.00;3.17;;;11.10;99.90;;;;;;5054616;28;20166;-72
2022/11/06 04:41:08;;;;;;;11.27;3.75;;;10.90;99.90;;;;;;5056448;28;20048;-71
2022/11/06 04:43:48;;;;;;;16.20;4.30;;;11.00;99.90;;;;;;5055678;28;20530;-73
2022/11/06 04:46:22;;;;;;;9.27;3.63;;;10.90;99.90;;;;;;5054850;28;20037;-71
2022/11/06 04:48:49;;;;;;;11.63;3.17;;;10.90;99.90;;;;;;5055574;28;20025;-71
2022/11/06 04:51:19;;;;;;;13.93;4.28;;;10.90;99.90;;;;;;5055693;28;20028;-70
2022/11/06 04:53:48;;;;;;;11.13;3.75;;;10.80;99.90;;;;;;5054762;28;20037;-70
2022/11/06 04:56:22;;;;;;;13.90;3.75;;;10.80;99.90;;;;;;5055722;28;20910;-72
2022/11/06 04:58:48;;;;;;;26.83;13.05;;;10.80;99.90;;;;;;5055870;28;20107;-70
2022/11/06 05:01:14;;;;;;;20.92;3.90;;;10.70;99.90;;;;;;5054388;28;20100;-72
2022/11/06 05:03:39;;;;;;;12.25;3.80;;;10.80;99.90;;;;;;5055369;28;20041;-72
2022/11/06 05:06:05;;;;;;;8.85;2.75;;;10.70;99.90;;;;;;5054333;28;20025;-72
2022/11/06 05:08:31;;;;;;;15.43;3.60;;;10.60;99.90;;;;;;5055891;28;20029;-72
2022/11/06 05:10:57;;;;;;;9.82;3.20;;;10.70;99.90;;;;;;5055508;28;20096;-73
2022/11/06 05:13:22;;;;;;;11.02;3.45;;;10.70;99.90;;;;;;5055542;28;20779;-70
2022/11/06 05:15:53;;;;;;;16.00;3.90;;;10.70;99.90;;;;;;5055598;28;20084;-72
2022/11/06 05:18:19;;;;;;;11.07;2.77;;;10.60;99.90;;;;;;5055195;28;20477;-70
2022/11/06 05:20:45;;;;;;;15.05;2.70;;;10.60;99.90;;;;;;5055369;28;20305;-71
2022/11/06 05:23:11;;;;;;;11.38;3.53;;;10.60;99.90;;;;;;5055081;28;20017;-71
2022/11/06 05:25:39;;;;;;;13.77;2.85;;;10.70;99.90;;;;;;5055399;28;20036;-72
2022/11/06 05:28:06;;;;;;;18.90;3.80;;;10.60;99.90;;;;;;5055378;28;20032;-72
2022/11/06 05:30:33;;;;;;;17.88;2.80;;;10.70;99.90;;;;;;5055315;28;20025;-72
2022/11/06 05:32:59;;;;;;;10.88;2.83;;;10.70;99.90;;;;;;5053718;28;20036;-72
2022/11/06 05:35:25;;;;;;;10.70;2.95;;;10.70;99.90;;;;;;5054974;28;20029;-71
2022/11/06 05:37:58;;;;;;;7.63;2.35;;;10.80;99.90;;;;;;5055231;28;20032;-72
2022/11/06 05:40:23;;;;;;;10.23;2.55;;;10.80;99.90;;;;;;5054919;28;20412;-70
2022/11/06 05:42:49;;;;;;;16.02;3.20;;;10.80;99.90;;;;;;5055195;28;20015;-72
2022/11/06 05:45:15;;;;;;;10.25;2.85;;;10.80;99.90;;;;;;5053877;28;20118;-71
2022/11/06 05:47:41;;;;;;;7.97;2.75;;;10.90;99.90;;;;;;5054346;28;20029;-71
2022/11/06 05:50:08;;;;;;;11.52;2.80;;;10.80;99.90;;;;;;5054898;28;20021;-70
2022/11/06 05:52:35;;;;;;;15.85;3.05;;;10.90;99.90;;;;;;5054971;28;20029;-69
2022/11/06 05:55:01;;;;;;;14.68;2.60;;;10.80;99.90;;;;;;5054967;28;20035;-69
2022/11/06 05:57:27;;;;;;;15.27;3.20;;;10.80;99.90;;;;;;5055083;28;20033;-73
2022/11/06 05:59:53;;;;;;;11.02;2.47;;;10.70;99.90;;;;;;5054758;28;20385;-72
2022/11/06 06:02:19;;;;;;;7.45;2.38;;;10.80;99.90;;;;;;5054546;28;20037;-73
2022/11/06 06:04:44;;;;;;;11.82;2.67;;;10.80;99.90;;;;;;5054491;28;20041;-69
2022/11/06 06:07:10;;;;;;;14.68;2.90;;;10.80;99.90;;;;;;5053442;28;20037;-70
2022/11/06 06:09:36;;;;;;;13.98;2.35;;;10.80;99.90;;;;;;5054439;28;20025;-69
2022/11/06 06:12:02;;;;;;;18.48;2.67;;;10.80;99.90;;;;;;5054549;28;20033;-69
2022/11/06 06:14:28;;;;;;;9.07;2.40;;;10.90;99.90;;;;;;5054239;28;20032;-69
2022/11/06 06:16:53;;;;;;;10.88;3.08;;;10.90;99.90;;;;;;5052960;28;20044;-69
2022/11/06 06:19:19;;;;;;;14.15;2.60;;;10.90;99.90;;;;;;5054515;28;20500;-70
2022/11/06 06:21:45;;;;;;;14.93;3.17;;;11.00;99.90;;;;;;5054008;28;20511;-69
2022/11/06 06:24:10;;;;;;;12.07;3.58;;;11.10;99.90;;;;;;5054289;28;20037;-69
2022/11/06 06:26:36;;;;;;;7.70;2.80;;;11.00;99.90;;;;;;5054045;28;20028;-69
2022/11/06 06:29:02;;;;;;;6.80;2.90;;;11.00;99.90;;;;;;5053076;28;20033;-69
2022/11/06 06:31:29;;;;;;;13.07;2.72;;;11.10;99.90;;;;;;5053668;28;20112;-69
2022/11/06 06:33:54;;;;;;;11.32;2.65;;;11.00;99.90;;;;;;5052956;28;20049;-69
2022/11/06 06:36:20;;;;;;;8.52;2.60;;;11.00;99.90;;;;;;5053284;28;20076;-69
2022/11/06 06:38:46;;;;;;;9.88;2.78;;;11.00;99.90;;;;;;5053806;28;20024;-69
2022/11/06 06:41:11;;;;;;;11.48;2.40;;;11.00;99.90;;;;;;5053951;28;20076;-69
2022/11/06 06:43:37;;;;;;;9.43;2.28;;;11.00;99.90;;;;;;5052481;28;20033;-69
2022/11/06 06:46:05;;;;;;;6.57;2.58;;;11.00;99.90;;;;;;5053290;28;20029;-70
2022/11/06 06:48:31;;;;;;;11.95;2.80;;;11.00;99.90;;;;;;5052535;28;20432;-69
2022/11/06 06:50:58;;;;;;;17.00;2.63;;;11.10;99.90;;;;;;5053737;28;20029;-69
2022/11/06 06:53:24;;;;;;;14.60;2.92;;;11.10;99.90;;;;;;5053759;28;20076;-69
2022/11/06 06:55:49;;;;;;;19.45;2.40;;;11.20;99.90;;;;;;5053517;28;20036;-69
2022/11/06 06:58:15;;;;;;;14.35;2.58;;;11.30;99.90;;;;;;5053421;28;20359;-70
2022/11/06 07:00:41;;;;;;;7.97;2.42;;;11.30;99.90;;;;;;5053343;28;20433;-69
2022/11/06 07:03:07;;;;;;;12.75;2.22;;;11.40;99.90;;;;;;5053432;28;20381;-70
2022/11/06 07:05:33;;;;;;;9.25;2.42;;;11.40;99.90;;;;;;5053235;28;20393;-69
2022/11/06 07:07:58;;;;;;;11.15;3.00;;;11.40;99.90;;;;;;5053522;28;20029;-69
2022/11/06 07:10:24;;;;;;;11.95;2.53;;;11.50;99.90;;;;;;5053500;28;20036;-69
2022/11/06 07:12:50;;;;;;;9.93;2.03;;;11.50;99.90;;;;;;5053151;28;20017;-69
2022/11/06 07:15:15;;;;;;;14.50;2.53;;;11.50;99.90;;;;;;5052998;28;20040;-69
2022/11/06 07:17:41;;;;;;;9.38;2.20;;;11.60;99.90;;;;;;5053024;28;20055;-70
2022/11/06 07:20:08;;;;;;;8.02;2.65;;;11.60;99.90;;;;;;5053435;28;20032;-69
2022/11/06 07:22:34;;;;;;;8.88;2.38;;;11.60;99.90;;;;;;5053294;28;20044;-69
2022/11/06 07:25:00;;;;;;;6.88;2.47;;;11.70;99.90;;;;;;5053108;28;20481;-70
2022/11/06 07:27:27;;;;;;;10.73;2.67;;;11.70;99.90;;;;;;5053087;28;20104;-69
2022/11/06 07:29:53;;;;;;;8.25;2.20;;;11.70;99.90;;;;;;5052724;28;20033;-70
2022/11/06 07:32:19;;;;;;;11.48;1.90;;;11.80;99.90;;;;;;5053390;28;20029;-70
2022/11/06 07:34:45;;;;;;;12.02;2.63;;;11.90;99.90;;;;;;5052865;28;20060;-70
2022/11/06 07:37:11;;;;;;;7.93;1.90;;;11.90;99.90;;;;;;5052716;28;20037;-70
2022/11/06 07:39:37;;;;;;;7.80;2.15;;;12.00;99.90;;;;;;5045951;28;20043;-70
2022/11/06 07:42:03;;;;;;;4.43;1.77;;;12.10;99.90;;;;;;5063151;28;20028;-69
2022/11/06 07:44:34;;;;;;;17.00;3.63;;;12.20;99.90;;;;;;5063285;28;20400;-70
2022/11/06 07:47:00;;;;;;;4.70;1.58;;;12.30;99.90;;;;;;5058928;28;20029;-70
2022/11/06 07:49:25;;;;;;;15.32;2.28;;;12.20;99.90;;;;;;5058646;28;20108;-71
2022/11/06 07:51:51;;;;;;;4.63;1.70;;;12.20;99.90;;;;;;5054908;28;20477;-70
2022/11/06 07:54:17;;;;;;;8.75;2.58;;;12.40;99.90;;;;;;5055660;28;20021;-72
2022/11/06 07:56:43;;;;;;;9.68;2.50;;;12.50;99.90;;;;;;5068665;28;20082;-71
2022/11/06 07:59:08;;;;;;;6.20;1.98;;;12.40;99.90;;;;;;5063595;28;20362;-72
2022/11/06 08:01:34;;;;;;;10.15;2.15;;;12.50;99.90;;;;;;5057612;28;20104;-72
2022/11/06 08:04:00;;;;;;;7.60;1.85;;;12.50;99.90;;;;;;5053790;28;20461;-71
2022/11/06 08:06:25;;;;;;;10.20;2.72;;;12.50;99.90;;;;;;5055928;28;20094;-71
2022/11/06 08:08:51;;;;;;;16.05;2.33;;;12.60;99.90;;;;;;5064128;28;20089;-71
2022/11/06 08:11:17;;;;;;;10.00;3.13;;;12.70;99.90;;;;;;5059158;28;20115;-71
2022/11/06 08:13:42;;;;;;;10.15;2.13;;;12.60;99.90;;;;;;5056314;28;20021;-71
2022/11/06 08:16:11;;;;;;;10.07;2.53;;;12.70;99.90;;;;;;5054063;28;20478;-71
2022/11/06 08:18:37;;;;;;;11.45;2.53;;;12.70;99.90;;;;;;5055174;28;20499;-70
2022/11/06 08:21:04;;;;;;;8.43;1.98;;;12.80;99.90;;;;;;5066907;28;20041;-72
2022/11/06 08:23:30;;;;;;;5.97;1.80;;;12.90;99.90;;;;;;5058702;28;20112;-72
2022/11/06 08:25:58;;;;;;;15.75;2.10;;;13.00;99.90;;;;;;5054505;28;20738;-71
2022/11/06 08:28:25;;;;;;;6.68;1.98;;;13.10;99.90;;;;;;5054814;28;20029;-72
2022/11/06 08:30:52;;;;;;;6.07;1.77;;;13.00;99.90;;;;;;5068521;28;20485;-71
2022/11/06 08:33:18;;;;;;;17.05;2.60;;;13.00;99.90;;;;;;5062260;28;20111;-72
2022/11/06 08:35:44;;;;;;;5.43;1.75;;;13.00;99.90;;;;;;5052753;28;20496;-71
2022/11/06 08:38:10;;;;;;;11.35;2.05;;;12.90;99.90;;;;;;5052123;28;20028;-71
2022/11/06 08:40:37;;;;;;;12.07;1.90;;;12.90;99.90;;;;;;5042401;28;20020;-73
2022/11/06 08:43:06;;;;;;;7.88;2.10;;;12.90;99.90;;;;;;5051114;28;20079;-73
2022/11/06 08:45:34;;;;;;;5.22;1.63;;;13.00;99.90;;;;;;5058777;28;20103;-73
2022/11/06 08:48:02;;;;;;;8.00;1.75;;;13.00;99.90;;;;;;5053175;28;20079;-72
2022/11/06 08:50:29;;;;;;;8.05;2.03;;;13.00;99.90;;;;;;5048443;28;20028;-72
2022/11/06 08:52:56;;;;;;;8.98;2.28;;;13.00;99.90;;;;;;5031770;28;20021;-72
2022/11/06 08:55:22;;;;;;;7.35;2.05;;;13.00;99.90;;;;;;5047322;28;20470;-72
2022/11/06 08:57:48;;;;;;;11.40;2.15;;;13.00;99.90;;;;;;5048124;28;20052;-72
2022/11/06 09:00:15;;;;;;;6.22;2.10;;;12.90;99.90;;;;;;5044496;28;20029;-72
2022/11/06 09:02:41;;;;;;;5.95;2.13;;;12.90;99.90;;;;;;5040542;28;20009;-72
2022/11/06 09:05:07;;;;;;;7.20;1.60;;;12.80;99.90;;;;;;5033015;28;20049;-73
2022/11/06 09:07:33;;;;;;;8.85;2.03;;;12.80;99.90;;;;;;5042185;28;20022;-72
2022/11/06 09:09:59;;;;;;;14.63;2.08;;;12.80;99.90;;;;;;5041090;28;20029;-72
2022/11/06 09:12:24;;;;;;;10.77;2.10;;;12.80;99.90;;;;;;5046501;28;20506;-72
2022/11/06 09:14:50;;;;;;;8.82;2.50;;;12.90;99.90;;;;;;5042923;28;20037;-71
2022/11/06 09:17:18;;;;;;;12.00;2.00;;;12.90;99.90;;;;;;5043006;28;20028;-72
2022/11/06 09:19:44;;;;;;;9.07;1.70;;;12.90;99.90;;;;;;5045992;28;20040;-72
2022/11/06 09:22:10;;;;;;;6.53;1.63;;;13.00;99.90;;;;;;5047557;28;20021;-72
2022/11/06 09:24:35;;;;;;;8.57;1.63;;;13.00;99.90;;;;;;5045275;28;20678;-72
2022/11/06 09:27:01;;;;;;;13.82;1.90;;;13.10;99.90;;;;;;5043464;28;20041;-73
2022/11/06 09:29:27;;;;;;;9.18;2.65;;;13.10;99.90;;;;;;5052777;28;20049;-72
2022/11/06 09:31:53;;;;;;;13.32;2.40;;;13.20;99.90;;;;;;5029343;28;20029;-72
2022/11/06 09:34:19;;;;;;;11.70;2.70;;;13.10;99.90;;;;;;5044941;28;20504;-72
2022/11/06 09:36:44;;;;;;;12.85;2.15;;;13.00;99.90;;;;;;5045098;28;20052;-72
2022/11/06 09:39:10;;;;;;;12.38;2.38;;;13.00;99.90;;;;;;5039815;28;20035;-72
2022/11/06 09:41:56;;;;;;;13.15;2.55;;;13.10;99.90;;;;;;5047305;28;20032;-72
2022/11/06 09:44:24;;;;;;;9.57;2.03;;;13.10;99.90;;;;;;5056324;28;20454;-71
2022/11/06 09:46:50;;;;;;;8.23;2.33;;;13.00;99.90;;;;;;5063189;28;20111;-70
2022/11/06 09:49:31;;;;;;;13.20;2.25;;;13.10;99.90;;;;;;5054023;28;20056;-70
2022/11/06 09:52:05;;;;;;;6.10;1.52;;;13.10;99.90;;;;;;5058035;28;20431;-71
2022/11/06 09:55:02;;;;;;;9.85;1.95;;;13.30;99.90;;;;;;5057016;28;20401;-70
2022/11/06 09:57:47;;;;;;;10.15;2.13;;;13.30;99.90;;;;;;5069425;28;20131;-70
2022/11/06 10:00:15;;;;;;;4.07;1.88;;;13.30;99.90;;;;;;5063550;28;20417;-71
2022/11/06 10:02:48;;;;;;;8.23;1.95;;;13.30;99.90;;;;;;5059702;28;20529;-70
2022/11/06 10:05:26;;;;;;;6.78;2.22;;;13.20;99.90;;;;;;5054756;28;20481;-71
2022/11/06 10:07:59;;;;;;;11.93;1.83;;;13.30;99.90;;;;;;5064682;28;20056;-71
2022/11/06 10:10:48;;;;;;;10.00;2.45;;;13.30;99.90;;;;;;5059900;28;20040;-71
2022/11/06 10:13:51;;;;;;;7.22;2.42;;;13.30;99.90;;;;;;5048684;28;20665;-70
2022/11/06 10:16:32;;;;;;;10.70;2.45;;;13.10;99.90;;;;;;5037355;28;20063;-70
2022/11/06 10:19:04;;;;;;;11.18;2.00;;;13.20;99.90;;;;;;5046658;28;20116;-70
2022/11/06 10:21:47;;;;;;;9.05;2.25;;;13.10;99.90;;;;;;5041189;28;20030;-71
2022/11/06 10:24:28;;;;;;;4.18;1.80;;;13.10;99.90;;;;;;5056952;28;20047;-70
2022/11/06 10:26:55;;;;;;;11.32;3.42;;;13.00;99.90;;;;;;5052344;28;20497;-69
2022/11/06 10:29:59;;;;;;;6.20;2.00;;;12.90;99.90;;;;;;5052316;28;20119;-70
2022/11/06 10:32:44;;;;;;;10.98;2.55;;;12.80;99.90;;;;;;5058376;28;20413;-70
2022/11/06 10:35:33;;;;;;;8.68;1.90;;;12.80;99.90;;;;;;5051798;28;20033;-70
2022/11/06 10:38:17;;;;;;;6.78;1.80;;;12.70;99.90;;;;;;5061338;28;20495;-70
2022/11/06 10:40:47;;;;;;;7.75;1.80;;;12.70;99.90;;;;;;5048086;28;20358;-70
2022/11/06 10:43:41;;;;;;;12.63;2.28;;;12.70;99.90;;;;;;5065353;28;20025;-70
2022/11/06 10:46:35;;;;;;;9.98;2.05;;;12.80;99.90;;;;;;5037918;28;20044;-70
2022/11/06 10:49:28;;;;;;;6.60;1.95;;;12.80;99.90;;;;;;5043207;28;20056;-71
2022/11/06 10:52:11;;;;;;;7.32;2.08;;;12.70;99.90;;;;;;5034337;28;20040;-70
2022/11/06 10:54:42;;;;;;;6.60;1.90;;;12.70;99.90;;;;;;5045158;28;20044;-70
2022/11/06 10:57:28;;;;;;;15.35;2.47;;;12.70;99.90;;;;;;5040378;28;20476;-71
2022/11/06 10:59:54;;;;;;;7.65;2.08;;;12.70;99.90;;;;;;5049715;28;20052;-70
2022/11/06 11:02:30;;;;;;;11.05;2.38;;;12.70;99.90;;;;;;5038795;28;20017;-70
2022/11/06 11:04:56;;;;;;;15.75;2.78;;;12.60;99.90;;;;;;5051056;28;20053;-70
2022/11/06 11:07:22;;;;;;;7.53;2.45;;;12.70;99.90;;;;;;5048602;28;20027;-70
2022/11/06 11:09:50;;;;;;;5.97;1.85;;;12.80;99.90;;;;;;5041585;28;20037;-70
2022/11/06 11:12:29;;;;;;;7.03;2.28;;;12.80;99.90;;;;;;5036219;28;20021;-71
2022/11/06 11:15:15;;;;;;;10.52;2.13;;;12.80;99.90;;;;;;5040336;28;20062;-70
2022/11/06 11:17:41;;;;;;;10.45;2.53;;;12.70;99.90;;;;;;5050999;28;20021;-70
2022/11/06 11:20:44;;;;;;;5.80;1.80;;;12.70;99.90;;;;;;5044509;28;20033;-71
2022/11/06 11:23:27;;;;;;;8.95;2.03;;;12.70;99.90;;;;;;5009469;28;20157;-71
2022/11/06 11:25:55;;;;;;;8.07;2.10;;;12.70;99.90;;;;;;5038518;28;20076;-70
2022/11/06 11:28:31;;;;;;;8.77;2.15;;;12.80;99.90;;;;;;5054031;28;20458;-71
2022/11/06 11:31:06;;;;;;;4.88;1.63;;;12.80;99.90;;;;;;5047438;28;20036;-70
2022/11/06 11:33:32;;;;;;;8.60;2.40;;;12.90;99.90;;;;;;5058753;28;20115;-72
2022/11/06 11:35:58;;;;;;;9.43;2.17;;;12.90;99.90;;;;;;5053959;28;20048;-71
2022/11/06 11:38:24;;;;;;;8.45;2.25;;;12.80;99.90;;;;;;5056539;28;20127;-72
2022/11/06 11:40:51;;;;;;;7.18;2.15;;;12.80;99.90;;;;;;5056444;28;20393;-72
2022/11/06 11:43:24;;;;;;;10.38;2.45;;;12.80;99.90;;;;;;5063086;28;20071;-72
2022/11/06 11:46:08;;;;;;;10.10;2.42;;;12.90;99.90;;;;;;5055583;28;20093;-71
2022/11/06 11:49:04;;;;;;;12.32;2.63;;;12.90;99.90;;;;;;5051087;28;20033;-70
2022/11/06 11:51:37;;;;;;;11.05;2.15;;;13.00;99.90;;;;;;5043544;28;20037;-70
2022/11/06 11:54:11;;;;;;;8.18;2.08;;;12.90;99.90;;;;;;5033040;28;20474;-70
2022/11/06 11:56:45;;;;;;;12.38;2.30;;;12.80;99.90;;;;;;5032376;28;20075;-70
2022/11/06 11:59:33;;;;;;;9.63;2.30;;;12.80;99.90;;;;;;5039729;28;20063;-70
2022/11/06 12:02:25;;;;;;;6.20;2.30;;;12.70;99.90;;;;;;5052629;28;20112;-70
2022/11/06 12:04:54;;;;;;;;;;;12.70;99.90;;;;;;5048700;28;20072;-70
2022/11/06 12:07:31;;;;;;;8.63;2.85;;;12.60;99.90;;;;;;5044763;28;20353;-70
2022/11/06 12:09:58;;;;;;;7.35;2.38;;;12.60;99.90;;;;;;5045547;28;20117;-70
2022/11/06 12:12:31;;;;;;;9.70;2.75;;;12.60;99.90;;;;;;5026870;28;20024;-70
2022/11/06 12:15:20;;;;;;;10.32;2.08;;;12.40;99.90;;;;;;5051657;28;20469;-70
2022/11/06 12:18:06;;;;;;;8.98;2.40;;;12.40;99.90;;;;;;5047353;28;20025;-69
2022/11/06 12:20:59;;;;;;;9.43;2.42;;;12.30;99.90;;;;;;5054997;28;20033;-69
2022/11/06 12:23:33;;;;;;;7.45;1.83;;;12.20;99.90;;;;;;5055182;28;20049;-69
2022/11/06 12:26:10;;;;;;;13.45;3.03;;;12.10;99.90;;;;;;5058973;28;20033;-69
2022/11/06 12:28:39;;;;;;;7.00;2.22;;;12.10;99.90;;;;;;5053172;28;20021;-68
2022/11/06 12:31:16;;;;;;;13.98;2.63;;;12.00;99.90;;;;;;5052852;28;20025;-69
2022/11/06 12:33:45;;;;;;;8.13;2.08;;;11.90;99.90;;;;;;5047716;28;20029;-69
2022/11/06 12:36:16;;;;;;;8.07;2.20;;;11.80;99.90;;;;;;5046306;28;20032;-68
2022/11/06 12:38:52;;;;;;;6.68;2.40;;;11.80;99.90;;;;;;5047610;28;20053;-69
2022/11/06 12:41:42;;;;;;;11.77;2.63;;;11.80;99.90;;;;;;5054218;28;20020;-68
2022/11/06 12:44:13;;;;;;;15.30;2.90;;;11.80;99.90;;;;;;5043864;28;20055;-68
2022/11/06 12:47:00;;;;;;;6.93;2.55;;;11.70;99.90;;;;;;5040169;28;20059;-68
2022/11/06 12:49:35;;;;;;;14.52;2.60;;;11.70;99.90;;;;;;5050313;28;20056;-68
2022/11/06 12:52:32;;;;;;;9.13;2.22;;;11.60;99.90;;;;;;5046771;28;20017;-68
2022/11/06 12:55:13;;;;;;;8.15;2.47;;;11.40;99.90;;;;;;5050938;28;20057;-68
2022/11/06 12:58:09;;;;;;;10.93;2.60;;;11.40;99.90;;;;;;5047457;28;20033;-68
2022/11/06 13:00:56;;;;;;;9.75;3.03;;;11.40;99.90;;;;;;5043839;28;20033;-68
2022/11/06 13:04:09;;;;;;;11.63;2.00;;;11.40;99.90;;;;;;5050447;28;20049;-68
2022/11/06 13:06:53;;;;;;;10.82;2.47;;;11.40;99.90;;;;;;5047357;28;20041;-69
2022/11/06 13:09:52;;;;;;;7.20;2.00;;;11.30;99.90;;;;;;5042752;28;20059;-68
2022/11/06 13:12:30;;;;;;;14.25;3.33;;;11.10;99.90;;;;;;5047370;28;20120;-68
2022/11/06 13:15:06;;;;;;;13.20;2.88;;;11.20;99.90;;;;;;5067523;28;20060;-68
2022/11/06 13:18:17;;;;;;;9.73;2.83;;;11.00;99.90;;;;;;5066809;28;20020;-68